createdAt,value
2023-04-15T00:01:37.536Z,97438.19
2023-04-15T00:04:09.924Z,97429.06
2023-04-15T00:06:42.332Z,97421.88
2023-04-15T00:09:14.597Z,97421.22
2023-04-15T00:11:47.515Z,97413.19
2023-04-15T00:14:19.777Z,97420.41
2023-04-15T00:16:56.187Z,97411.34
2023-04-15T00:19:30.034Z,97414.56
2023-04-15T00:22:02.372Z,97413.94
2023-04-15T00:24:35.042Z,97414.00
2023-04-15T00:27:07.969Z,97411.97
2023-04-15T00:29:39.863Z,97413.38
2023-04-15T00:32:12.571Z,97412.19
2023-04-15T00:34:46.729Z,97406.94
2023-04-15T00:37:19.133Z,97417.47
2023-04-15T00:39:51.189Z,97413.63
2023-04-15T00:42:25.304Z,97419.59
2023-04-15T00:44:57.619Z,97407.16
2023-04-15T00:47:31.933Z,97410.44
2023-04-15T00:50:04.954Z,97413.63
2023-04-15T00:52:38.256Z,97407.66
2023-04-15T00:55:11.228Z,97405.69
2023-04-15T00:57:44.876Z,97403.13
2023-04-15T01:00:17.284Z,97405.72
2023-04-15T01:02:51.608Z,97407.06
2023-04-15T01:05:25.841Z,97400.53
2023-04-15T01:07:58.660Z,97392.69
2023-04-15T01:10:35.333Z,97394.66
2023-04-15T01:13:08.261Z,97390.00
2023-04-15T01:15:40.486Z,97389.34
2023-04-15T01:18:13.754Z,97394.59
2023-04-15T01:20:47.066Z,97385.41
2023-04-15T01:23:20.570Z,97382.78
2023-04-15T01:25:54.002Z,97379.53
2023-04-15T01:28:26.373Z,97386.03
2023-04-15T01:31:10.688Z,97391.22
2023-04-15T01:33:43.802Z,97391.84
2023-04-15T01:36:16.088Z,97393.16
2023-04-15T01:38:48.178Z,97394.53
2023-04-15T01:41:28.240Z,97388.03
2023-04-15T01:44:00.566Z,97380.22
2023-04-15T01:46:54.865Z,97381.59
2023-04-15T01:49:27.582Z,97382.28
2023-04-15T01:52:00.913Z,97386.28
2023-04-15T01:54:32.770Z,97382.94
2023-04-15T01:57:06.056Z,97380.34
2023-04-15T01:59:38.592Z,97386.22
2023-04-15T02:02:11.677Z,97385.53
2023-04-15T02:04:44.632Z,97384.22
2023-04-15T02:07:17.837Z,97385.00
2023-04-15T02:09:49.977Z,97379.75
2023-04-15T02:12:22.956Z,97373.22
2023-04-15T02:14:55.831Z,97379.78
2023-04-15T02:17:29.348Z,97383.69
2023-04-15T02:20:02.026Z,97375.25
2023-04-15T02:22:37.231Z,97385.00
2023-04-15T02:25:11.222Z,97377.84
2023-04-15T02:27:44.304Z,97379.09
2023-04-15T02:30:17.460Z,97368.03
2023-04-15T02:32:50.336Z,97369.41
2023-04-15T02:35:22.995Z,97374.63
2023-04-15T02:37:54.925Z,97370.03
2023-04-15T02:40:28.369Z,97371.41
2023-04-15T02:43:00.908Z,97367.44
2023-04-15T02:45:34.772Z,97364.19
2023-04-15T02:48:09.987Z,97374.63
2023-04-15T02:50:42.345Z,97366.72
2023-04-15T02:53:17.458Z,97375.09
2023-04-15T02:55:49.745Z,97369.88
2023-04-15T02:58:21.609Z,97374.50
2023-04-15T03:00:54.282Z,97370.56
2023-04-15T03:03:28.153Z,97371.88
2023-04-15T03:06:01.918Z,97377.25
2023-04-15T03:08:35.464Z,97374.00
2023-04-15T03:11:08.878Z,97376.63
2023-04-15T03:13:43.192Z,97374.03
2023-04-15T03:16:26.798Z,97374.03
2023-04-15T03:18:58.819Z,97368.16
2023-04-15T03:21:32.082Z,97372.72
2023-04-15T03:24:04.056Z,97368.16
2023-04-15T03:26:37.298Z,97367.53
2023-04-15T03:29:16.008Z,97364.94
2023-04-15T03:31:48.745Z,97368.22
2023-04-15T03:34:21.742Z,97361.66
2023-04-15T03:36:54.893Z,97369.47
2023-04-15T03:39:27.642Z,97360.38
2023-04-15T03:42:00.507Z,97364.75
2023-04-15T03:44:33.007Z,97356.44
2023-04-15T03:47:05.302Z,97346.78
2023-04-15T03:49:38.580Z,97367.72
2023-04-15T03:52:10.439Z,97369.66
2023-04-15T03:54:42.752Z,97363.78
2023-04-15T03:57:15.090Z,97352.59
2023-04-15T03:59:47.420Z,97362.44
2023-04-15T04:02:20.170Z,97363.09
2023-04-15T04:04:53.042Z,97362.47
2023-04-15T04:07:25.302Z,97357.88
2023-04-15T04:09:58.750Z,97363.78
2023-04-15T04:12:31.562Z,97360.50
2023-04-15T04:15:04.230Z,97359.19
2023-04-15T04:17:36.172Z,97358.56
2023-04-15T04:20:09.564Z,97369.66
2023-04-15T04:22:41.694Z,97368.28
2023-04-15T04:25:35.532Z,97373.53
2023-04-15T04:28:07.785Z,97365.69
2023-04-15T04:30:40.447Z,97370.25
2023-04-15T04:33:13.536Z,97368.28
2023-04-15T04:35:45.581Z,97371.56
2023-04-15T04:38:18.246Z,97376.75
2023-04-15T04:40:50.173Z,97375.41
2023-04-15T04:43:22.902Z,97373.47
2023-04-15T04:45:55.178Z,97384.56
2023-04-15T04:48:27.525Z,97379.97
2023-04-15T04:51:00.197Z,97390.47
2023-04-15T04:53:33.168Z,97387.25
2023-04-15T04:56:05.186Z,97393.13
2023-04-15T04:58:38.547Z,97394.47
2023-04-15T05:01:10.632Z,97386.59
2023-04-15T05:03:43.549Z,97395.81
2023-04-15T05:06:15.623Z,97396.50
2023-04-15T05:08:48.809Z,97398.50
2023-04-15T05:11:21.359Z,97397.22
2023-04-15T05:13:53.238Z,97398.53
2023-04-15T05:16:26.410Z,97397.19
2023-04-15T05:18:59.219Z,97393.94
2023-04-15T05:21:31.716Z,97402.47
2023-04-15T05:24:05.082Z,97401.19
2023-04-15T05:26:36.972Z,97414.25
2023-04-15T05:29:09.659Z,97409.72
2023-04-15T05:31:42.180Z,97406.41
2023-04-15T05:34:16.711Z,97405.75
2023-04-15T05:36:48.972Z,97411.00
2023-04-15T05:39:21.772Z,97412.31
2023-04-15T05:41:54.796Z,97412.34
2023-04-15T05:44:26.840Z,97412.31
2023-04-15T05:46:59.718Z,97411.69
2023-04-15T05:49:32.311Z,97416.25
2023-04-15T05:52:04.676Z,97422.81
2023-04-15T05:54:37.228Z,97417.56
2023-04-15T05:57:09.476Z,97424.13
2023-04-15T05:59:42.401Z,97420.84
2023-04-15T06:02:15.382Z,97417.56
2023-04-15T06:04:47.765Z,97410.28
2023-04-15T06:07:20.070Z,97409.59
2023-04-15T06:09:52.371Z,97415.41
2023-04-15T06:12:24.205Z,97422.56
2023-04-15T06:14:59.542Z,97415.97
2023-04-15T06:17:32.337Z,97419.69
2023-04-15T06:20:05.615Z,97415.63
2023-04-15T06:22:39.000Z,97412.88
2023-04-15T06:25:11.955Z,97417.75
2023-04-15T06:27:44.240Z,97418.84
2023-04-15T06:30:17.157Z,97416.28
2023-04-15T06:32:53.291Z,97414.25
2023-04-15T06:35:25.982Z,97410.94
2023-04-15T06:37:57.901Z,97417.41
2023-04-15T06:40:31.015Z,97414.59
2023-04-15T06:43:04.811Z,97412.13
2023-04-15T06:45:37.657Z,97418.84
2023-04-15T06:48:09.965Z,97414.19
2023-04-15T06:50:42.325Z,97412.06
2023-04-15T06:53:15.288Z,97412.53
2023-04-15T06:55:47.600Z,97413.75
2023-04-15T06:58:20.358Z,97414.44
2023-04-15T07:00:53.721Z,97411.28
2023-04-15T07:03:26.037Z,97414.34
2023-04-15T07:05:59.194Z,97401.78
2023-04-15T07:08:31.453Z,97404.22
2023-04-15T07:11:04.544Z,97399.38
2023-04-15T07:13:37.117Z,97404.84
2023-04-15T07:16:09.041Z,97410.00
2023-04-15T07:18:42.150Z,97417.13
2023-04-15T07:21:17.161Z,97403.75
2023-04-15T07:23:50.012Z,97407.50
2023-04-15T07:26:21.902Z,97408.66
2023-04-15T07:28:54.586Z,97406.56
2023-04-15T07:31:27.729Z,97399.06
2023-04-15T07:33:59.803Z,97407.09
2023-04-15T07:36:32.986Z,97408.41
2023-04-15T07:39:05.912Z,97407.16
2023-04-15T07:41:39.041Z,97401.03
2023-04-15T07:44:11.318Z,97409.31
2023-04-15T07:46:44.110Z,97412.00
2023-04-15T07:49:16.433Z,97411.78
2023-04-15T07:51:51.459Z,97411.97
2023-04-15T07:54:23.725Z,97414.16
2023-04-15T07:56:57.645Z,97422.44
2023-04-15T07:59:31.217Z,97412.72
2023-04-15T08:02:05.032Z,97413.47
2023-04-15T08:04:37.549Z,97420.88
2023-04-15T08:07:11.024Z,97424.00
2023-04-15T08:09:42.870Z,97420.31
2023-04-15T08:12:16.310Z,97416.91
2023-04-15T08:14:49.772Z,97423.38
2023-04-15T08:17:22.541Z,97421.75
2023-04-15T08:19:55.024Z,97431.28
2023-04-15T08:22:27.567Z,97432.34
2023-04-15T08:25:00.172Z,97444.31
2023-04-15T08:27:32.530Z,97441.47
2023-04-15T08:30:05.890Z,97448.75
2023-04-15T08:32:39.062Z,97442.50
2023-04-15T08:35:11.376Z,97441.00
2023-04-15T08:37:44.042Z,97448.97
2023-04-15T08:43:19.244Z,97457.03
2023-04-15T08:45:52.093Z,97455.75
2023-04-15T08:48:29.535Z,97451.91
2023-04-15T08:51:02.381Z,97457.84
2023-04-15T08:53:35.848Z,97459.97
2023-04-15T08:56:10.070Z,97464.44
2023-04-15T08:58:47.181Z,97454.25
2023-04-15T09:01:19.565Z,97467.75
2023-04-15T09:03:55.185Z,97459.41
2023-04-15T09:06:27.242Z,97458.81
2023-04-15T09:09:02.766Z,97465.63
2023-04-15T09:11:36.580Z,97471.41
2023-04-15T09:14:11.261Z,97476.56
2023-04-15T09:17:18.963Z,97479.13
2023-04-15T09:20:13.017Z,97471.16
2023-04-15T09:22:48.098Z,97473.41
2023-04-15T09:25:23.096Z,97484.16
2023-04-15T09:28:02.347Z,97479.28
2023-04-15T09:30:35.276Z,97483.81
2023-04-15T09:33:11.268Z,97477.38
2023-04-15T09:36:05.572Z,97488.97
2023-04-15T09:39:01.611Z,97488.94
2023-04-15T09:41:34.641Z,97491.16
2023-04-15T09:44:29.013Z,97495.31
2023-04-15T09:47:01.722Z,97508.59
2023-04-15T09:49:34.886Z,97505.88
2023-04-15T09:52:06.928Z,97495.69
2023-04-15T09:54:39.715Z,97499.44
2023-04-15T09:57:12.194Z,97506.56
2023-04-15T10:05:38.171Z,97510.13
2023-04-15T10:08:10.956Z,97517.72
2023-04-15T10:10:47.778Z,97513.31
2023-04-15T10:13:24.127Z,97506.94
2023-04-15T10:15:57.144Z,97511.91
2023-04-15T10:18:36.160Z,97516.47
2023-04-15T10:21:09.487Z,97524.19
2023-04-15T10:23:42.952Z,97521.56
2023-04-15T10:26:17.793Z,97517.31
2023-04-15T10:28:50.208Z,97510.03
2023-04-15T10:31:24.205Z,97511.41
2023-04-15T10:33:57.188Z,97520.38
2023-04-15T10:36:30.168Z,97522.56
2023-04-15T10:39:02.837Z,97531.38
2023-04-15T10:41:38.922Z,97526.00
2023-04-15T10:44:11.731Z,97538.41
2023-04-15T10:46:46.758Z,97535.91
2023-04-15T10:49:26.345Z,97534.06
2023-04-15T10:51:59.737Z,97532.22
2023-04-15T10:54:33.945Z,97530.09
2023-04-15T10:57:06.508Z,97541.78
2023-04-15T11:03:06.986Z,97550.41
2023-04-15T11:05:42.960Z,97551.13
2023-04-15T11:08:15.810Z,97545.94
2023-04-15T11:10:48.006Z,97540.78
2023-04-15T11:13:27.135Z,97558.47
2023-04-15T11:16:01.537Z,97554.66
2023-04-15T11:18:35.641Z,97552.34
2023-04-15T11:21:09.516Z,97559.88
2023-04-15T11:23:47.176Z,97557.63
2023-04-15T11:26:19.509Z,97559.22
2023-04-15T11:28:53.121Z,97565.41
2023-04-15T11:31:29.111Z,97564.63
2023-04-15T11:34:03.247Z,97569.44
2023-04-15T11:36:35.333Z,97562.28
2023-04-15T11:39:08.214Z,97570.75
2023-04-15T11:41:43.683Z,97575.03
2023-04-15T11:44:19.504Z,97573.06
2023-04-15T11:46:51.824Z,97568.69
2023-04-15T11:49:34.936Z,97581.84
2023-04-15T11:52:12.132Z,97582.31
2023-04-15T11:54:44.406Z,97585.69
2023-04-15T11:57:17.128Z,97588.41
2023-04-15T11:59:49.046Z,97598.34
2023-04-15T12:02:22.251Z,97597.78
2023-04-15T12:05:07.198Z,97605.69
2023-04-15T12:07:59.400Z,97605.69
2023-04-15T12:10:32.964Z,97607.16
2023-04-15T12:13:08.016Z,97610.78
2023-04-15T12:15:41.843Z,97614.28
2023-04-15T12:18:20.464Z,97615.97
2023-04-15T12:20:55.901Z,97615.75
2023-04-15T12:23:28.176Z,97622.00
2023-04-15T12:26:05.324Z,97625.13
2023-04-15T12:28:42.001Z,97630.00
2023-04-15T12:31:16.822Z,97629.19
2023-04-15T12:33:50.221Z,97628.31
2023-04-15T12:36:23.384Z,97634.41
2023-04-15T12:38:55.965Z,97632.50
2023-04-15T12:44:24.136Z,97646.31
2023-04-15T12:46:57.129Z,97644.72
2023-04-15T12:49:29.753Z,97648.53
2023-04-15T12:52:04.167Z,97652.78
2023-04-15T12:54:37.446Z,97654.66
2023-04-15T12:57:10.157Z,97653.88
2023-04-15T12:59:42.045Z,97656.13
2023-04-15T13:02:14.880Z,97662.81
2023-04-15T13:05:08.336Z,97661.38
2023-04-15T13:07:41.284Z,97656.59
2023-04-15T13:10:13.247Z,97662.00
2023-04-15T13:12:47.396Z,97671.50
2023-04-15T13:15:23.448Z,97663.81
2023-04-15T13:17:56.282Z,97671.34
2023-04-15T13:20:28.767Z,97674.44
2023-04-15T13:23:04.532Z,97672.16
2023-04-15T13:25:37.256Z,97680.53
2023-04-15T13:28:12.650Z,97678.16
2023-04-15T13:30:45.742Z,97675.59
2023-04-15T13:33:40.361Z,97681.84
2023-04-15T13:36:12.404Z,97682.63
2023-04-15T13:41:38.524Z,97691.44
2023-04-15T13:44:12.670Z,97690.66
2023-04-15T13:46:45.154Z,97686.63
2023-04-15T13:49:17.018Z,97694.34
2023-04-15T13:51:49.857Z,97694.59
2023-04-15T13:54:22.488Z,97692.03
2023-04-15T13:56:57.381Z,97693.63
2023-04-15T13:59:30.153Z,97702.13
2023-04-15T14:02:02.982Z,97697.47
2023-04-15T14:04:35.488Z,97703.59
2023-04-15T14:07:08.631Z,97717.91
2023-04-15T14:09:43.389Z,97718.41
2023-04-15T14:12:16.350Z,97717.91
2023-04-15T14:14:51.768Z,97718.53
2023-04-15T14:17:24.072Z,97724.19
2023-04-15T14:19:56.005Z,97730.63
2023-04-15T14:22:31.638Z,97732.94
2023-04-15T14:25:04.985Z,97728.13
2023-04-15T14:27:38.113Z,97744.69
2023-04-15T14:30:10.628Z,97750.81
2023-04-15T14:32:45.875Z,97757.69
2023-04-15T14:35:17.803Z,97761.34
2023-04-15T14:38:12.292Z,97766.72
2023-04-15T14:40:45.319Z,97770.69
2023-04-15T14:43:38.121Z,97770.13
2023-04-15T14:46:11.484Z,97769.19
2023-04-15T14:48:44.247Z,97770.31
2023-04-15T14:51:16.511Z,97773.72
2023-04-15T14:53:49.886Z,97784.09
2023-04-15T14:56:21.836Z,97778.81
2023-04-15T14:58:55.055Z,97778.94
2023-04-15T15:01:27.460Z,97775.91
2023-04-15T15:03:59.521Z,97776.56
2023-04-15T15:06:32.824Z,97790.00
2023-04-15T15:09:07.406Z,97794.78
2023-04-15T15:11:39.830Z,97789.41
2023-04-15T15:14:12.578Z,97780.19
2023-04-15T15:16:44.536Z,97792.00
2023-04-15T15:19:38.578Z,97786.97
2023-04-15T15:22:14.001Z,97789.41
2023-04-15T15:24:46.248Z,97797.66
2023-04-15T15:27:21.428Z,97800.31
2023-04-15T15:29:54.205Z,97803.59
2023-04-15T15:32:26.109Z,97806.56
2023-04-15T15:34:58.902Z,97822.19
2023-04-15T15:37:31.550Z,97818.78
2023-04-15T15:40:05.676Z,97830.28
2023-04-15T15:42:38.142Z,97828.06
2023-04-15T15:45:10.966Z,97828.06
2023-04-15T15:47:43.110Z,97835.59
2023-04-15T15:50:16.504Z,97841.34
2023-04-15T15:52:49.251Z,97842.19
2023-04-15T15:55:43.732Z,97841.16
2023-04-15T15:58:17.025Z,97839.81
2023-04-15T16:00:48.959Z,97864.53
2023-04-15T16:03:23.022Z,97852.75
2023-04-15T16:05:55.047Z,97861.69
2023-04-15T16:08:28.223Z,97870.59
2023-04-15T16:11:00.421Z,97871.31
2023-04-15T16:13:33.291Z,97885.69
2023-04-15T16:16:06.586Z,97878.25
2023-04-15T16:18:39.392Z,97883.91
2023-04-15T16:21:11.360Z,97891.63
2023-04-15T16:23:44.108Z,97884.84
2023-04-15T16:26:17.474Z,97881.06
2023-04-15T16:28:49.825Z,97894.94
2023-04-15T16:31:23.072Z,97887.16
2023-04-15T16:33:54.964Z,97900.13
2023-04-15T16:36:27.957Z,97888.50
2023-04-15T16:39:00.410Z,97905.69
2023-04-15T16:41:34.449Z,97901.22
2023-04-15T16:44:08.385Z,97903.28
2023-04-15T16:46:41.710Z,97903.97
2023-04-15T16:49:14.068Z,97909.44
2023-04-15T16:51:46.305Z,97910.56
2023-04-15T16:54:19.052Z,97917.66
2023-04-15T16:56:51.053Z,97923.66
2023-04-15T16:59:24.146Z,97937.84
2023-04-15T17:01:56.219Z,97951.59
2023-04-15T17:04:29.764Z,97941.22
2023-04-15T17:07:01.924Z,97960.75
2023-04-15T17:09:34.846Z,97959.47
2023-04-15T17:12:08.266Z,97959.66
2023-04-15T17:14:42.660Z,97963.41
2023-04-15T17:17:14.569Z,97967.97
2023-04-15T17:19:47.090Z,97967.03
2023-04-15T17:22:19.962Z,97975.22
2023-04-15T17:24:51.837Z,97975.88
2023-04-15T17:27:25.144Z,97982.56
2023-04-15T17:29:57.423Z,97984.16
2023-04-15T17:32:34.646Z,97992.88
2023-04-15T17:35:07.763Z,97995.47
2023-04-15T17:37:40.643Z,98006.97
2023-04-15T17:40:13.709Z,98000.97
2023-04-15T17:42:46.634Z,98002.94
2023-04-15T17:45:19.007Z,98017.69
2023-04-15T17:47:51.497Z,98017.22
2023-04-15T17:50:23.402Z,98018.69
2023-04-15T17:52:56.154Z,98024.66
2023-04-15T17:55:28.511Z,98032.78
2023-04-15T17:58:01.551Z,98041.38
2023-04-15T18:00:33.421Z,98032.94
2023-04-15T18:03:06.126Z,98036.31
2023-04-15T18:05:39.166Z,98052.91
2023-04-15T18:08:12.836Z,98049.06
2023-04-15T18:10:45.182Z,98061.66
2023-04-15T18:13:18.616Z,98062.44
2023-04-15T18:15:51.305Z,98071.06
2023-04-15T18:18:24.287Z,98074.94
2023-04-15T18:20:56.264Z,98082.22
2023-04-15T18:23:28.761Z,98089.00
2023-04-15T18:26:01.263Z,98089.03
2023-04-15T18:28:33.782Z,98090.31
2023-04-15T18:31:06.429Z,98094.34
2023-04-15T18:33:39.704Z,98105.00
2023-04-15T18:36:11.668Z,98097.13
2023-04-15T18:38:46.393Z,98103.75
2023-04-15T18:41:18.893Z,98120.94
2023-04-15T18:43:51.116Z,98118.38
2023-04-15T18:46:23.185Z,98113.03
2023-04-15T18:48:55.807Z,98126.97
2023-04-15T18:51:28.119Z,98128.34
2023-04-15T18:54:00.583Z,98138.94
2023-04-15T18:56:33.514Z,98141.00
2023-04-15T18:59:08.799Z,98151.56
2023-04-15T19:02:00.122Z,98151.56
2023-04-15T19:04:32.835Z,98166.09
2023-04-15T19:07:05.312Z,98166.78
2023-04-15T19:09:37.912Z,98166.19
2023-04-15T19:12:09.862Z,98179.41
2023-04-15T19:14:42.483Z,98171.50
2023-04-15T19:17:14.463Z,98176.16
2023-04-15T19:19:47.297Z,98184.06
2023-04-15T19:22:19.493Z,98189.38
2023-04-15T19:24:52.549Z,98196.00
2023-04-15T19:27:24.431Z,98204.59
2023-04-15T19:29:57.682Z,98205.25
2023-04-15T19:32:29.584Z,98212.47
2023-04-15T19:35:02.117Z,98212.47
2023-04-15T19:37:34.092Z,98219.13
2023-04-15T19:40:07.659Z,98227.06
2023-04-15T19:42:39.540Z,98227.09
2023-04-15T19:45:12.153Z,98234.34
2023-04-15T19:47:44.174Z,98237.69
2023-04-15T19:50:17.273Z,98245.63
2023-04-15T19:52:49.543Z,98245.59
2023-04-15T19:55:22.083Z,98254.22
2023-04-15T19:57:53.985Z,98256.88
2023-04-15T20:00:27.841Z,98270.09
2023-04-15T20:03:00.885Z,98263.50
2023-04-15T20:05:33.652Z,98277.41
2023-04-15T20:08:05.593Z,98277.41
2023-04-15T20:10:38.111Z,98281.38
2023-04-15T20:13:10.020Z,98279.34
2023-04-15T20:15:42.588Z,98288.59
2023-04-15T20:18:14.589Z,98286.63
2023-04-15T20:20:47.602Z,98275.38
2023-04-15T20:23:19.535Z,98284.63
2023-04-15T20:25:52.278Z,98290.59
2023-04-15T20:28:27.302Z,98302.50
2023-04-15T20:31:01.562Z,98303.84
2023-04-15T20:33:33.576Z,98297.91
2023-04-15T20:36:06.192Z,98313.09
2023-04-15T20:38:38.112Z,98313.75
2023-04-15T20:41:10.649Z,98319.69
2023-04-15T20:43:42.910Z,98323.69
2023-04-15T20:46:21.123Z,98319.69
2023-04-15T20:48:53.915Z,98322.34
2023-04-15T20:51:27.657Z,98323.66
2023-04-15T20:53:59.516Z,98330.91
2023-04-15T20:56:32.223Z,98333.53
2023-04-15T20:59:04.471Z,98338.16
2023-04-15T21:01:37.328Z,98341.44
2023-04-15T21:04:09.256Z,98334.81
2023-04-15T21:06:41.754Z,98344.06
2023-04-15T21:09:14.247Z,98334.19
2023-04-15T21:12:00.582Z,98341.41
2023-04-15T21:14:35.776Z,98351.31
2023-04-15T21:17:11.146Z,98359.19
2023-04-15T21:19:44.001Z,98358.56
2023-04-15T21:22:16.495Z,98357.88
2023-04-15T21:24:48.982Z,98359.88
2023-04-15T21:27:21.672Z,98365.75
2023-04-15T21:29:53.963Z,98365.69
2023-04-15T21:32:26.660Z,98371.63
2023-04-15T21:34:58.589Z,98371.63
2023-04-15T21:37:31.221Z,98376.88
2023-04-15T21:40:04.058Z,98382.75
2023-04-15T21:42:36.933Z,98390.59
2023-04-15T21:45:09.266Z,98397.16
2023-04-15T21:48:06.877Z,98407.56
2023-04-15T21:50:34.007Z,98404.91
2023-04-15T21:53:08.864Z,98410.75
2023-04-15T21:55:40.948Z,98406.72
2023-04-15T21:58:13.424Z,98417.91
2023-04-15T22:00:45.425Z,98416.59
2023-04-15T22:03:17.997Z,98421.09
2023-04-15T22:05:50.021Z,98420.28
2023-04-15T22:08:22.556Z,98424.13
2023-04-15T22:10:55.209Z,98428.81
2023-04-15T22:13:27.752Z,98423.59
2023-04-15T22:15:59.612Z,98435.47
2023-04-15T22:18:32.050Z,98434.13
2023-04-15T22:21:04.015Z,98438.53
2023-04-15T22:23:36.911Z,98433.88
2023-04-15T22:26:08.822Z,98437.13
2023-04-15T22:28:41.335Z,98441.00
2023-04-15T22:31:14.703Z,98443.59
2023-04-15T22:33:47.230Z,98442.88
2023-04-15T22:36:19.079Z,98446.88
2023-04-15T22:38:51.725Z,98447.59
2023-04-15T22:41:23.586Z,98445.66
2023-04-15T22:43:56.426Z,98455.31
2023-04-15T22:46:28.302Z,98461.19
2023-04-15T22:49:01.320Z,98448.75
2023-04-15T22:51:33.490Z,98465.97
2023-04-15T22:54:06.088Z,98467.13
2023-04-15T22:56:37.990Z,98469.94
2023-04-15T22:59:10.566Z,98474.00
2023-04-15T23:01:42.737Z,98462.16
2023-04-15T23:04:27.847Z,98468.19
2023-04-15T23:07:00.368Z,98465.50
2023-04-15T23:09:33.203Z,98466.16
2023-04-15T23:12:06.180Z,98471.53
2023-04-15T23:14:38.638Z,98475.50
2023-04-15T23:17:10.614Z,98472.19
2023-04-15T23:19:43.144Z,98476.16
2023-04-15T23:22:15.389Z,98470.22
2023-04-15T23:24:47.913Z,98475.53
2023-04-15T23:27:19.823Z,98477.50
2023-04-15T23:29:52.363Z,98488.56
2023-04-15T23:32:24.278Z,98488.59
2023-04-15T23:34:57.206Z,98489.19
2023-04-15T23:37:31.284Z,98488.53
2023-04-15T23:40:03.859Z,98491.16
2023-04-15T23:42:35.754Z,98491.22
2023-04-15T23:45:09.924Z,98497.75
2023-04-15T23:47:41.957Z,98496.56
2023-04-15T23:50:14.486Z,98496.38
2023-04-15T23:52:46.337Z,98499.69
2023-04-15T23:55:18.807Z,98504.97
2023-04-15T23:57:50.741Z,98495.88
